Lady Lola — ZCGQ7 — position and weather

sailwx.info

Track history (hours):
 
Tides and Currents Weather Stations Pressure Air Temp Water Temp Dewpoint Dewpoint Depression Visibility Wind Speed Wind Dir Waves Ship Positions

Lady Lola

Last reported at 2018-Feb-06 22:05 UTC. Time now 2018-Feb-18 19:45 UTC.
Position N 24°21' W 076°43'.
Warning: this ship's position is 11 days out of date.

Length 63 m; draft 3.6 m.

Type: Pleasure craft. MMSI: 319713000.

Date/timePositionNaut miles runAvg speedWind from/ knotsBaromVisibWave heightAir tempDewpointWater temp
2018-Feb-06 22:05N 24°21' W 076°43'110.6
2018-Feb-06 22:00N 24°20' W 076°42'510.6
2018-Feb-06 21:30N 24°17' W 076°38'5 9.6
2018-Feb-06 21:00N 24°14' W 076°33'4 8.4
2018-Feb-06 20:29N 24°11' W 076°30'0 0.0
2018-Feb-06 19:59N 24°11' W 076°30'0 0.0
2018-Feb-06 19:29N 24°11' W 076°30'0 0.0
2018-Feb-06 18:59N 24°11' W 076°30'0 0.0
2018-Feb-06 18:29N 24°11' W 076°30'0 0.0
2018-Feb-06 17:59N 24°11' W 076°30'0 0.0
2018-Feb-06 17:29N 24°11' W 076°30'0 0.0
2018-Feb-06 16:59N 24°11' W 076°30'0 0.0
2018-Feb-06 16:29N 24°11' W 076°30'0 0.0
2018-Feb-06 15:59N 24°11' W 076°30'0 0.0
2018-Feb-06 15:29N 24°11' W 076°30'0 0.0
2018-Feb-06 14:59N 24°11' W 076°30'13 8.1
2018-Feb-06 13:25N 24°19' W 076°41'410.1
2018-Feb-06 13:00N 24°22' W 076°44'7 0.4
2018-Feb-05 17:07N 24°29' W 076°47'0 0.0
2018-Feb-05 16:43N 24°29' W 076°47'0 0.0
2018-Feb-05 16:25N 24°29' W 076°47'0 0.0
2018-Feb-05 15:37N 24°29' W 076°47'0 0.0
2018-Feb-05 13:28N 24°29' W 076°47'0 0.0
2018-Feb-05 12:55N 24°29' W 076°47'0 0.0
2018-Feb-05 12:19N 24°29' W 076°47'0 0.0
2018-Feb-05 11:49N 24°29' W 076°47'0 0.0
2018-Feb-05 11:25N 24°29' W 076°47'0 0.0
2018-Feb-05 03:49N 24°29' W 076°47'0 0.0
2018-Feb-05 03:10N 24°29' W 076°47'0 0.0
2018-Feb-05 02:40N 24°29' W 076°47'0 0.0
2018-Feb-04 23:55N 24°29' W 076°47'0 0.0
2018-Feb-04 23:28N 24°29' W 076°47'0 0.0
2018-Feb-04 22:58N 24°29' W 076°47'0 0.0
2018-Feb-04 22:29N 24°29' W 076°47'0 0.0
2018-Feb-04 21:57N 24°29' W 076°47'  
Track history (hours):
 
Tides and Currents Weather Stations Pressure Air Temp Water Temp Dewpoint Dewpoint Depression Visibility Wind Speed Wind Dir Waves Ship Positions

Lady Lola

Last reported at 2018-Feb-06 22:05 UTC. Time now 2018-Feb-18 19:45 UTC.
Position N 24°21' W 076°43'.
Warning: this ship's position is 11 days out of date.

Length 63 m; draft 3.6 m.

Type: Pleasure craft. MMSI: 319713000.

Date/timePositionNaut miles runAvg speedWind from/ knotsBaromVisibWave heightAir tempDewpointWater temp
2018-Feb-06 22:05N 24°21' W 076°43'110.6
2018-Feb-06 22:00N 24°20' W 076°42'510.6
2018-Feb-06 21:30N 24°17' W 076°38'5 9.6
2018-Feb-06 21:00N 24°14' W 076°33'4 8.4
2018-Feb-06 20:29N 24°11' W 076°30'0 0.0
2018-Feb-06 19:59N 24°11' W 076°30'0 0.0
2018-Feb-06 19:29N 24°11' W 076°30'0 0.0
2018-Feb-06 18:59N 24°11' W 076°30'0 0.0
2018-Feb-06 18:29N 24°11' W 076°30'0 0.0
2018-Feb-06 17:59N 24°11' W 076°30'0 0.0
2018-Feb-06 17:29N 24°11' W 076°30'0 0.0
2018-Feb-06 16:59N 24°11' W 076°30'0 0.0
2018-Feb-06 16:29N 24°11' W 076°30'0 0.0
2018-Feb-06 15:59N 24°11' W 076°30'0 0.0
2018-Feb-06 15:29N 24°11' W 076°30'0 0.0
2018-Feb-06 14:59N 24°11' W 076°30'13 8.1
2018-Feb-06 13:25N 24°19' W 076°41'410.1
2018-Feb-06 13:00N 24°22' W 076°44'7 0.4
2018-Feb-05 17:07N 24°29' W 076°47'0 0.0
2018-Feb-05 16:43N 24°29' W 076°47'0 0.0
2018-Feb-05 16:25N 24°29' W 076°47'0 0.0
2018-Feb-05 15:37N 24°29' W 076°47'0 0.0
2018-Feb-05 13:28N 24°29' W 076°47'0 0.0
2018-Feb-05 12:55N 24°29' W 076°47'0 0.0
2018-Feb-05 12:19N 24°29' W 076°47'0 0.0
2018-Feb-05 11:49N 24°29' W 076°47'0 0.0
2018-Feb-05 11:25N 24°29' W 076°47'0 0.0
2018-Feb-05 03:49N 24°29' W 076°47'0 0.0
2018-Feb-05 03:10N 24°29' W 076°47'0 0.0
2018-Feb-05 02:40N 24°29' W 076°47'0 0.0
2018-Feb-04 23:55N 24°29' W 076°47'0 0.0
2018-Feb-04 23:28N 24°29' W 076°47'0 0.0
2018-Feb-04 22:58N 24°29' W 076°47'0 0.0
2018-Feb-04 22:29N 24°29' W 076°47'0 0.0
2018-Feb-04 21:57N 24°29' W 076°47'  

Dump ship's entire track history